Time;durP1;ratioP1;P1;durP2;ratioP2;P2;SDS_P1;SDS_P2;PMS_P1;PMS_P2;Temp;Humidity;BMP_temperature;BMP_pressure;BME280_temperature;BME280_humidity;BME280_pressure;Samples;Min_cycle;Max_cycle;Signal;HPM_P1;HPM_P2
2021/05/30 00:02:23;;;;;;;6.20;2.92;;;;;;;18.17;50.50;101773.72;4998555;28;20027;-90
2021/05/30 00:04:49;;;;;;;14.55;3.80;;;;;;;18.06;50.44;101779.03;4998614;28;20022;-90
2021/05/30 00:07:14;;;;;;;6.30;3.42;;;;;;;18.01;50.33;101775.91;5013568;28;20027;-90
2021/05/30 00:09:40;;;;;;;6.85;4.65;;;;;;;18.01;50.74;101775.91;4998471;28;20026;-89
2021/05/30 00:12:09;;;;;;;3.97;3.13;;;;;;;18.03;50.78;101777.47;4998473;28;20026;-89
2021/05/30 00:14:35;;;;;;;6.20;3.10;;;;;;;17.82;50.23;101776.44;4995695;28;20572;-90
2021/05/30 00:17:01;;;;;;;5.18;3.10;;;;;;;17.86;50.04;101779.75;4996363;28;20077;-90
2021/05/30 00:19:26;;;;;;;6.90;3.10;;;;;;;17.84;49.98;101774.53;4995395;28;20408;-90
2021/05/30 00:21:52;;;;;;;3.70;2.97;;;;;;;17.88;50.33;101777.81;4995160;28;20033;-90
2021/05/30 00:24:18;;;;;;;5.70;3.72;;;;;;;17.81;50.36;101778.25;4995163;28;20561;-89
2021/05/30 00:26:44;;;;;;;5.00;3.40;;;;;;;17.77;50.72;101775.94;4995155;28;20026;-90
2021/05/30 00:29:09;;;;;;;4.40;3.17;;;;;;;17.81;51.04;101777.38;4995127;28;20029;-90
2021/05/30 00:31:35;;;;;;;6.35;3.25;;;;;;;17.70;52.46;101785.34;4994958;28;20507;-90
2021/05/30 00:34:00;;;;;;;5.55;3.15;;;;;;;17.61;53.74;101782.44;4995067;28;20056;-90
2021/05/30 00:36:26;;;;;;;3.13;2.80;;;;;;;17.50;54.71;101784.22;4994979;28;20113;-89
2021/05/30 00:38:51;;;;;;;5.50;3.00;;;;;;;17.38;55.93;101792.13;4994823;28;20082;-90
2021/05/30 00:41:17;;;;;;;4.40;3.33;;;;;;;17.24;57.10;101784.34;4994735;28;20503;-89
2021/05/30 00:43:47;;;;;;;3.92;2.80;;;;;;;17.12;57.90;101787.88;4994821;28;20540;-90
2021/05/30 00:46:13;;;;;;;3.88;3.08;;;;;;;16.90;57.11;101792.13;4994925;28;20105;-90
2021/05/30 00:48:39;;;;;;;5.43;3.60;;;;;;;16.88;56.44;101793.19;4994661;28;20105;-90
2021/05/30 00:51:05;;;;;;;3.85;3.10;;;;;;;16.88;58.42;101788.72;4994638;28;20125;-90
2021/05/30 00:53:32;;;;;;;3.55;3.00;;;;;;;16.73;59.46;101792.47;4994657;28;20162;-90
2021/05/30 00:55:58;;;;;;;4.22;3.13;;;;;;;16.64;56.59;101792.16;4994445;28;20026;-89
2021/05/30 00:58:24;;;;;;;4.70;3.15;;;;;;;16.63;57.12;101785.19;4994791;28;20088;-90
2021/05/30 01:00:49;;;;;;;4.35;3.17;;;;;;;16.50;58.76;101773.75;4994346;28;20022;-90
2021/05/30 01:03:14;;;;;;;7.00;3.22;;;;;;;16.51;57.03;101790.50;4994461;28;20081;-90
2021/05/30 01:05:40;;;;;;;4.45;3.10;;;;;;;16.50;56.87;101779.03;4994450;28;20046;-90
2021/05/30 01:08:05;;;;;;;4.35;3.17;;;;;;;16.54;56.30;101784.97;4994495;28;20018;-90
2021/05/30 01:10:34;;;;;;;3.45;2.80;;;;;;;16.55;56.96;101790.19;4994082;28;20026;-89
2021/05/30 01:13:01;;;;;;;5.13;3.28;;;;;;;16.38;57.12;101780.75;4994270;28;20715;-89
2021/05/30 01:15:29;;;;;;;9.05;3.40;;;;;;;16.31;57.07;101778.66;4994189;28;20113;-90
2021/05/30 01:17:55;;;;;;;6.45;3.30;;;;;;;16.19;57.56;101781.22;4994204;28;20035;-90
2021/05/30 01:20:22;;;;;;;4.57;3.15;;;;;;;16.16;56.14;101781.44;4993984;28;20034;-89
2021/05/30 01:22:48;;;;;;;5.15;2.95;;;;;;;16.22;58.08;101785.47;4994106;28;20062;-89
2021/05/30 01:25:17;;;;;;;5.28;3.40;;;;;;;16.14;58.84;101780.69;4992932;28;20026;-89
2021/05/30 01:27:42;;;;;;;4.72;2.72;;;;;;;16.11;59.71;101780.88;4993953;28;20058;-89
2021/05/30 01:30:09;;;;;;;4.85;2.97;;;;;;;15.97;58.98;101778.34;4993952;28;20073;-89
2021/05/30 01:32:35;;;;;;;5.25;3.25;;;;;;;16.02;57.48;101784.19;4993945;28;20022;-89
2021/05/30 01:35:00;;;;;;;4.43;3.30;;;;;;;15.93;57.61;101769.75;4993867;28;20041;-89
2021/05/30 01:37:26;;;;;;;4.18;3.40;;;;;;;15.99;56.74;101779.94;4993809;28;20022;-89
2021/05/30 01:39:51;;;;;;;5.00;3.15;;;;;;;16.01;60.05;101782.47;4993625;28;20026;-90
2021/05/30 01:42:17;;;;;;;3.20;2.90;;;;;;;15.90;61.05;101779.75;4993824;28;20030;-90
2021/05/30 01:44:43;;;;;;;5.03;2.95;;;;;;;15.81;58.16;101776.75;4993794;28;20524;-90
2021/05/30 01:47:08;;;;;;;6.53;3.25;;;;;;;15.90;59.59;101785.03;4993901;28;20101;-90
2021/05/30 01:49:33;;;;;;;2.90;2.47;;;;;;;15.87;59.10;101783.44;4993716;28;20033;-89
2021/05/30 01:51:59;;;;;;;5.65;3.55;;;;;;;15.58;61.40;101780.94;4993436;28;20499;-90
2021/05/30 01:54:27;;;;;;;3.47;3.17;;;;;;;15.50;62.50;101780.63;4993488;28;20026;-90
2021/05/30 01:56:56;;;;;;;5.95;3.47;;;;;;;15.44;63.36;101783.66;4993570;28;20081;-90
2021/05/30 01:59:22;;;;;;;4.45;4.05;;;;;;;15.37;63.07;101782.38;4993327;28;20030;-90
2021/05/30 02:01:53;;;;;;;4.60;3.72;;;;;;;15.44;62.87;101783.66;4993266;28;20026;-90
2021/05/30 02:04:21;;;;;;;5.17;4.20;;;;;;;15.44;62.34;101781.88;4993427;28;20030;-90
2021/05/30 02:06:48;;;;;;;6.63;5.05;;;;;;;15.28;63.21;101770.59;4993233;28;20149;-89
2021/05/30 02:09:15;;;;;;;5.82;4.60;;;;;;;15.21;64.17;101777.25;4993270;28;20023;-90
2021/05/30 02:11:40;;;;;;;5.40;3.72;;;;;;;15.25;65.35;101776.94;4992976;28;20480;-90
2021/05/30 02:14:07;;;;;;;4.25;3.67;;;;;;;15.00;65.50;101775.03;4993117;28;20033;-90
2021/05/30 02:16:34;;;;;;;4.80;3.95;;;;;;;14.94;66.17;101779.88;4993000;28;20035;-89
2021/05/30 02:19:00;;;;;;;4.40;3.88;;;;;;;14.96;65.93;101773.53;4992947;28;20382;-89
2021/05/30 02:21:26;;;;;;;5.88;5.05;;;;;;;15.18;65.05;101772.97;4992795;28;20022;-89
2021/05/30 02:23:52;;;;;;;5.45;4.10;;;;;;;15.20;65.66;101770.25;4993018;28;20023;-89
2021/05/30 02:26:17;;;;;;;5.70;3.63;;;;;;;15.12;65.51;101775.19;4992900;28;20033;-89
2021/05/30 02:28:43;;;;;;;5.93;4.35;;;;;;;14.72;67.74;101775.97;4993042;28;20026;-90
2021/05/30 02:31:08;;;;;;;5.82;4.10;;;;;;;14.60;68.40;101774.13;4992636;28;20033;-90
2021/05/30 02:33:34;;;;;;;4.72;4.00;;;;;;;14.46;68.56;101769.66;4992760;28;20109;-90
2021/05/30 02:36:00;;;;;;;6.75;4.18;;;;;;;14.39;69.24;101770.97;4992561;28;20027;-89
2021/05/30 02:38:25;;;;;;;8.40;4.70;;;;;;;14.57;66.74;101767.19;4992464;28;20038;-90
2021/05/30 02:40:51;;;;;;;6.07;5.07;;;;;;;14.36;67.46;101769.38;4992713;28;20034;-90
2021/05/30 02:43:16;;;;;;;6.35;4.82;;;;;;;14.37;67.65;101780.78;4992775;28;20022;-90
2021/05/30 02:45:41;;;;;;;6.88;4.78;;;;;;;14.40;68.35;101768.25;4992755;28;20027;-89
2021/05/30 02:48:07;;;;;;;5.13;4.63;;;;;;;14.33;67.62;101779.28;4992508;28;20034;-89
2021/05/30 02:50:32;;;;;;;8.25;5.28;;;;;;;14.21;68.26;101776.44;4992338;28;20513;-90
2021/05/30 02:52:58;;;;;;;5.82;4.45;;;;;;;14.09;68.97;101777.22;4992639;28;20030;-89
2021/05/30 02:55:23;;;;;;;6.95;5.70;;;;;;;14.20;68.72;101769.47;4992448;28;20022;-90
2021/05/30 02:57:48;;;;;;;5.93;5.32;;;;;;;14.23;68.75;101771.91;4992443;28;20053;-89
2021/05/30 03:00:15;;;;;;;8.10;5.93;;;;;;;14.00;69.73;101762.78;4992373;28;20038;-90
2021/05/30 03:02:40;;;;;;;7.65;5.57;;;;;;;13.91;71.10;101768.63;4992502;28;20026;-89
2021/05/30 03:05:07;;;;;;;7.57;5.72;;;;;;;13.89;71.44;101766.06;4992513;28;20030;-89
2021/05/30 03:07:32;;;;;;;6.57;5.43;;;;;;;14.01;70.55;101768.91;4992488;28;20439;-90
2021/05/30 03:09:58;;;;;;;8.90;5.40;;;;;;;13.97;70.48;101773.53;4992226;28;20093;-90
2021/05/30 03:12:23;;;;;;;8.25;5.38;;;;;;;14.16;69.25;101781.19;4992455;28;20396;-89
2021/05/30 03:14:49;;;;;;;7.00;4.97;;;;;;;13.94;71.04;101773.72;4992361;28;20033;-90
2021/05/30 03:17:14;;;;;;;7.97;5.68;;;;;;;13.83;71.63;101777.00;4992479;28;20479;-90
2021/05/30 03:19:40;;;;;;;9.05;5.55;;;;;;;13.83;72.08;101771.72;4992343;28;20389;-90
2021/05/30 03:22:06;;;;;;;6.82;5.30;;;;;;;13.84;72.26;101772.56;4992244;28;20022;-89
2021/05/30 03:24:32;;;;;;;9.10;5.22;;;;;;;13.79;72.04;101775.47;4992513;28;20026;-89
2021/05/30 03:26:57;;;;;;;7.07;5.20;;;;;;;13.72;71.93;101768.00;4992228;28;20540;-89
2021/05/30 03:29:22;;;;;;;8.15;5.82;;;;;;;13.74;72.63;101772.25;4992186;28;20038;-90
2021/05/30 03:31:48;;;;;;;7.95;5.50;;;;;;;13.69;72.92;101769.06;4990986;28;20022;-92
2021/05/30 03:34:13;;;;;;;7.05;5.05;;;;;;;13.73;72.72;101769.72;4992236;28;20026;-91
2021/05/30 03:36:39;;;;;;;6.50;5.15;;;;;;;13.52;74.24;101772.66;4992268;28;20030;-91
2021/05/30 03:39:09;;;;;;;6.65;5.68;;;;;;;13.52;74.51;101766.56;4992223;28;20161;-91
2021/05/30 03:41:37;;;;;;;5.63;5.05;;;;;;;13.64;73.20;101769.31;4991941;28;20022;-91
2021/05/30 03:44:04;;;;;;;6.70;5.90;;;;;;;13.72;73.33;101768.00;4992175;28;20027;-89
2021/05/30 03:46:30;;;;;;;7.32;5.40;;;;;;;13.67;73.83;101758.56;4992136;28;20026;-91
2021/05/30 03:48:56;;;;;;;5.70;4.82;;;;;;;13.68;73.53;101756.78;4993136;28;20113;-90
2021/05/30 03:51:21;;;;;;;6.50;5.45;;;;;;;13.67;72.98;101768.28;4995764;28;20460;-92
2021/05/30 03:53:47;;;;;;;5.55;5.03;;;;;;;13.65;74.45;101764.91;4995810;28;20029;-91
2021/05/30 03:56:13;;;;;;;6.60;5.20;;;;;;;13.63;74.66;101764.13;4995596;28;20080;-91
2021/05/30 03:58:38;;;;;;;6.28;5.10;;;;;;;13.42;75.81;101769.72;4995617;28;20029;-92
2021/05/30 04:01:04;;;;;;;5.78;5.18;;;;;;;13.37;76.40;101774.44;4995491;28;20027;-92
2021/05/30 04:03:29;;;;;;;6.68;5.57;;;;;;;13.33;76.74;101772.91;4995537;28;20073;-91
2021/05/30 04:05:55;;;;;;;6.45;5.80;;;;;;;13.33;76.30;101772.91;4995556;28;20093;-91
2021/05/30 04:08:20;;;;;;;7.13;5.97;;;;;;;13.16;76.69;101765.09;4995639;28;20027;-91
2021/05/30 04:10:45;;;;;;;7.97;6.20;;;;;;;13.13;77.66;101766.13;4995255;28;20030;-91
2021/05/30 04:13:11;;;;;;;6.75;6.15;;;;;;;13.12;77.97;101764.41;4995442;28;20546;-91
2021/05/30 04:15:37;;;;;;;7.03;6.32;;;;;;;13.10;78.16;101766.28;4995348;28;20429;-91
2021/05/30 04:18:03;;;;;;;7.35;6.38;;;;;;;13.08;78.59;101763.72;4995252;28;20023;-91
2021/05/30 04:20:28;;;;;;;6.80;5.97;;;;;;;13.08;78.54;101765.50;4995264;28;20029;-90
2021/05/30 04:22:53;;;;;;;7.00;6.05;;;;;;;13.04;78.52;101764.84;4994999;28;20389;-91
2021/05/30 04:25:19;;;;;;;7.80;6.43;;;;;;;13.07;79.23;101767.31;4995240;28;20030;-91
2021/05/30 04:27:46;;;;;;;8.32;6.72;;;;;;;13.10;78.96;101772.38;4995047;28;20033;-91
2021/05/30 04:30:13;;;;;;;8.80;6.75;;;;;;;13.08;78.96;101766.34;4994942;28;20031;-91
2021/05/30 04:32:39;;;;;;;8.43;7.47;;;;;;;13.12;79.57;101774.94;4995002;28;20109;-91
2021/05/30 04:35:06;;;;;;;7.53;6.72;;;;;;;13.13;79.84;101778.44;4995207;28;20026;-91
2021/05/30 04:37:32;;;;;;;11.98;7.40;;;;;;;13.14;79.62;101777.50;4994984;28;20023;-91
2021/05/30 04:39:57;;;;;;;9.35;7.43;;;;;;;13.14;80.13;101780.16;4994874;28;20030;-92
2021/05/30 04:42:23;;;;;;;7.20;5.78;;;;;;;13.17;79.55;101774.69;4994874;28;20109;-92
2021/05/30 04:44:48;;;;;;;7.35;6.60;;;;;;;13.24;78.74;101790.06;4995400;28;20488;-91
2021/05/30 04:47:13;;;;;;;9.65;6.82;;;;;;;13.20;79.22;101782.44;4994779;28;20150;-91
2021/05/30 04:49:40;;;;;;;7.68;6.80;;;;;;;13.20;79.55;101787.69;4994707;28;20126;-91
2021/05/30 04:52:07;;;;;;;9.75;6.68;;;;;;;13.20;79.42;101779.78;4994609;28;20033;-92
2021/05/30 04:54:33;;;;;;;8.20;5.85;;;;;;;13.17;79.42;101783.47;4994498;28;20042;-92
2021/05/30 04:56:58;;;;;;;7.90;6.20;;;;;;;13.17;79.72;101787.84;4994604;28;20031;-91
2021/05/30 04:59:23;;;;;;;6.45;5.85;;;;;;;13.16;80.20;101788.81;4994393;28;20039;-91
2021/05/30 05:01:50;;;;;;;6.40;5.57;;;;;;;13.13;80.54;101781.94;4994408;28;20085;-91
2021/05/30 05:04:15;;;;;;;6.35;5.75;;;;;;;13.14;80.18;101780.16;4994498;28;20032;-92
2021/05/30 05:06:41;;;;;;;9.05;6.88;;;;;;;12.98;81.79;101782.78;4994363;28;20026;-91
2021/05/30 05:09:06;;;;;;;10.23;6.90;;;;;;;12.91;80.94;101784.91;4994384;28;20042;-91
2021/05/30 05:11:31;;;;;;;8.90;6.57;;;;;;;12.89;81.67;101790.28;4992907;28;20086;-91
2021/05/30 05:13:58;;;;;;;13.80;7.22;;;;;;;12.94;82.07;101790.03;4994112;28;20474;-91
2021/05/30 05:16:23;;;;;;;9.65;7.45;;;;;;;12.97;81.64;101779.28;4994731;28;20026;-91
2021/05/30 05:18:49;;;;;;;7.55;6.60;;;;;;;13.04;81.70;101785.09;4994235;28;20053;-91
2021/05/30 05:21:14;;;;;;;8.48;6.80;;;;;;;13.23;81.32;101783.09;4994196;28;20061;-91
2021/05/30 05:23:40;;;;;;;8.18;5.68;;;;;;;13.47;79.63;101787.94;4994281;28;20022;-92
2021/05/30 05:26:05;;;;;;;7.85;6.55;;;;;;;13.51;79.58;101785.94;4994038;28;20098;-91
2021/05/30 05:28:32;;;;;;;8.18;6.68;;;;;;;13.53;80.16;101790.22;4994031;28;20504;-91
2021/05/30 05:30:58;;;;;;;9.73;6.13;;;;;;;13.56;79.76;101787.38;4993818;28;20030;-91
2021/05/30 05:33:24;;;;;;;10.70;7.13;;;;;;;13.55;80.70;101783.06;4994047;28;20031;-91
2021/05/30 05:35:50;;;;;;;7.35;6.18;;;;;;;13.59;81.02;101789.00;4994048;28;20097;-92
2021/05/30 05:38:15;;;;;;;9.02;5.85;;;;;;;13.53;80.63;101784.09;4993748;28;20433;-91
2021/05/30 05:40:41;;;;;;;9.15;6.80;;;;;;;13.64;81.37;101787.78;4993692;28;20018;-91
2021/05/30 05:43:07;;;;;;;9.38;6.57;;;;;;;13.75;80.45;101781.88;4993747;28;20053;-91
2021/05/30 05:45:34;;;;;;;8.70;6.60;;;;;;;13.86;80.48;101787.38;4993679;28;20085;-91
2021/05/30 05:48:00;;;;;;;9.57;6.95;;;;;;;13.93;79.47;101782.56;4993805;28;20131;-91
2021/05/30 05:50:26;;;;;;;8.20;6.85;;;;;;;13.97;79.88;101777.97;4993679;28;20479;-91
2021/05/30 05:52:52;;;;;;;6.95;5.90;;;;;;;14.01;79.72;101785.59;4993454;28;20157;-91
2021/05/30 05:55:19;;;;;;;6.72;6.05;;;;;;;14.12;79.36;101782.31;4993467;28;20034;-91
2021/05/30 05:57:51;;;;;;;6.20;5.18;;;;;;;14.27;78.66;101777.88;4993504;28;20037;-91
2021/05/30 06:00:18;;;;;;;;;;;;;;;14.48;77.67;101781.81;4993601;28;20181;-91
2021/05/30 06:02:46;;;;;;;7.28;6.22;;;;;;;14.54;76.70;101777.13;4993355;28;20400;-92
2021/05/30 06:05:19;;;;;;;8.82;6.95;;;;;;;14.46;78.57;101778.44;4993321;28;20041;-91
2021/05/30 06:07:46;;;;;;;7.05;5.88;;;;;;;14.65;78.43;101780.81;4993371;28;20042;-89
2021/05/30 06:10:13;;;;;;;9.20;5.88;;;;;;;14.87;78.59;101779.44;4993225;28;20026;-91
2021/05/30 06:12:39;;;;;;;9.00;6.82;;;;;;;15.51;76.00;101779.66;4992420;28;20029;-91
2021/05/30 06:15:06;;;;;;;11.35;8.02;;;;;;;16.10;73.76;101778.38;4992952;28;20026;-89
2021/05/30 06:17:31;;;;;;;8.60;7.50;;;;;;;16.96;71.15;101780.22;4993027;28;20029;-90
2021/05/30 06:19:57;;;;;;;9.10;6.95;;;;;;;17.90;66.06;101773.22;4993129;28;20023;-90
2021/05/30 06:22:22;;;;;;;9.27;6.93;;;;;;;18.77;60.81;101778.75;4993071;28;20018;-90
2021/05/30 06:24:47;;;;;;;11.95;8.18;;;;;;;19.78;54.50;101772.22;4992969;28;20057;-90
2021/05/30 06:27:13;;;;;;;9.80;6.90;;;;;;;20.58;52.86;101767.94;4992890;28;20038;-90
2021/05/30 06:29:39;;;;;;;8.27;7.03;;;;;;;21.06;51.36;101771.69;4992781;28;20031;-90
2021/05/30 06:32:05;;;;;;;10.65;6.72;;;;;;;21.72;49.23;101768.28;4992801;28;20049;-90
2021/05/30 06:34:31;;;;;;;9.82;7.18;;;;;;;22.48;47.70;101775.38;4991657;28;20492;-91
2021/05/30 06:36:56;;;;;;;9.57;7.05;;;;;;;23.12;44.42;101766.38;4992860;28;20035;-90
2021/05/30 06:39:23;;;;;;;9.93;7.20;;;;;;;23.63;42.92;101766.59;4992803;28;20038;-89
2021/05/30 06:41:50;;;;;;;7.80;6.70;;;;;;;24.13;42.57;101768.63;4992550;28;20041;-90
2021/05/30 06:44:15;;;;;;;10.38;7.20;;;;;;;24.50;40.14;101762.06;4992677;28;20038;-90
2021/05/30 06:46:40;;;;;;;11.85;7.40;;;;;;;24.75;39.20;101756.78;4992891;28;20026;-90
2021/05/30 06:49:06;;;;;;;8.05;6.80;;;;;;;25.02;38.21;101760.16;4991459;28;20121;-90
2021/05/30 06:51:32;;;;;;;8.52;6.85;;;;;;;24.84;38.08;101757.63;4992554;28;20062;-90
2021/05/30 06:53:59;;;;;;;7.60;6.65;;;;;;;25.18;38.11;101762.88;4992611;28;20029;-90
2021/05/30 06:56:26;;;;;;;5.93;5.32;;;;;;;25.35;38.68;101757.53;4992544;28;20031;-90
2021/05/30 06:58:52;;;;;;;9.63;6.03;;;;;;;25.27;37.39;101756.50;4992803;28;20019;-90
2021/05/30 07:01:20;;;;;;;9.25;6.40;;;;;;;25.66;37.09;101752.28;4992368;28;20041;-90
2021/05/30 07:03:47;;;;;;;7.03;5.30;;;;;;;26.04;36.24;101756.06;4992604;28;20033;-90
2021/05/30 07:06:12;;;;;;;7.25;5.45;;;;;;;26.34;35.14;101750.91;4992509;28;20030;-90
2021/05/30 07:08:37;;;;;;;5.82;4.95;;;;;;;26.12;34.84;101753.34;4992569;28;20037;-90
2021/05/30 07:11:03;;;;;;;5.78;5.18;;;;;;;26.18;35.22;101756.38;4992285;28;20076;-90
2021/05/30 07:13:28;;;;;;;9.15;4.97;;;;;;;26.79;34.05;101751.19;4992507;28;20429;-90
2021/05/30 07:15:54;;;;;;;4.80;4.30;;;;;;;26.90;34.05;101753.50;4992512;28;20128;-90
2021/05/30 07:18:20;;;;;;;4.80;3.92;;;;;;;27.15;33.62;101750.59;4992464;28;20544;-90
2021/05/30 07:20:46;;;;;;;4.68;3.90;;;;;;;27.28;33.15;101753.56;4992259;28;20448;-90
2021/05/30 07:23:12;;;;;;;5.72;3.70;;;;;;;27.36;32.07;101748.09;4994015;28;20030;-90
2021/05/30 07:25:38;;;;;;;6.25;3.63;;;;;;;27.46;32.00;101750.53;4998434;28;20027;-90
2021/05/30 07:28:05;;;;;;;4.72;3.42;;;;;;;27.77;31.47;101749.53;4996470;28;20030;-90
2021/05/30 07:30:30;;;;;;;4.55;2.97;;;;;;;28.15;31.11;101749.47;4996235;28;20026;-90
2021/05/30 07:32:56;;;;;;;4.15;3.35;;;;;;;28.36;29.95;101745.97;4994811;28;20026;-90
2021/05/30 07:35:21;;;;;;;4.97;3.85;;;;;;;28.34;29.72;101751.59;4996224;28;20026;-90
2021/05/30 07:37:47;;;;;;;5.30;3.58;;;;;;;28.36;29.67;101756.78;4996112;28;20030;-89
2021/05/30 07:40:13;;;;;;;5.63;3.05;;;;;;;28.77;30.20;101748.97;4995943;28;20073;-90
2021/05/30 07:42:38;;;;;;;5.00;3.58;;;;;;;28.87;29.78;101745.94;4996079;28;20030;-90
2021/05/30 07:45:05;;;;;;;5.75;3.30;;;;;;;28.96;29.24;101749.38;4996026;28;20388;-91
2021/05/30 07:47:30;;;;;;;4.25;3.33;;;;;;;29.01;29.22;101752.31;4996015;28;20539;-90
2021/05/30 07:49:56;;;;;;;4.30;3.80;;;;;;;28.84;29.29;101755.28;4995728;28;20030;-90
2021/05/30 07:52:22;;;;;;;5.65;4.25;;;;;;;28.83;29.41;101752.75;4995903;28;20026;-90
2021/05/30 07:54:47;;;;;;;5.28;4.55;;;;;;;28.99;29.52;101752.53;4995554;28;20019;-90
2021/05/30 07:57:12;;;;;;;6.72;4.95;;;;;;;28.62;30.11;101750.91;4995765;28;20061;-90
2021/05/30 07:59:38;;;;;;;6.15;4.45;;;;;;;28.48;30.90;101745.31;4995614;28;20034;-90
2021/05/30 08:02:03;;;;;;;5.30;4.47;;;;;;;29.24;29.90;101739.44;4995623;28;20025;-90
2021/05/30 08:04:29;;;;;;;5.32;3.67;;;;;;;29.48;30.10;101740.03;4995750;28;20114;-90
2021/05/30 08:06:54;;;;;;;4.15;3.75;;;;;;;29.77;29.61;101738.19;4995577;28;20105;-90
2021/05/30 08:09:19;;;;;;;9.48;4.95;;;;;;;30.10;28.95;101737.53;4995494;28;20146;-90
2021/05/30 08:11:45;;;;;;;6.57;4.63;;;;;;;30.40;28.47;101728.06;4995285;28;20031;-91
2021/05/30 08:14:10;;;;;;;7.18;5.20;;;;;;;30.35;29.16;101736.00;4995344;28;20026;-90
2021/05/30 08:16:36;;;;;;;6.68;5.05;;;;;;;30.46;28.86;101725.59;4995393;28;20041;-90
2021/05/30 08:19:01;;;;;;;8.50;5.15;;;;;;;30.19;28.53;101725.47;4995422;28;20019;-90
2021/05/30 08:21:27;;;;;;;6.53;4.78;;;;;;;29.95;29.89;101722.22;4995250;28;20053;-91
2021/05/30 08:23:52;;;;;;;6.75;5.30;;;;;;;30.32;28.57;101717.41;4995260;28;20030;-90
2021/05/30 08:26:18;;;;;;;5.68;4.95;;;;;;;29.94;28.99;101725.13;4995252;28;20105;-90
2021/05/30 08:28:43;;;;;;;7.72;5.32;;;;;;;29.83;29.16;101726.56;4995026;28;20069;-90
2021/05/30 08:31:09;;;;;;;6.13;5.10;;;;;;;30.12;29.43;101711.06;4994922;28;20117;-90
2021/05/30 08:33:34;;;;;;;6.82;5.35;;;;;;;30.32;29.50;101717.41;4995243;28;20077;-89
2021/05/30 08:36:00;;;;;;;5.93;4.63;;;;;;;30.23;29.95;101710.47;4994466;28;20065;-90
2021/05/30 08:38:25;;;;;;;8.07;5.63;;;;;;;30.37;29.05;101701.41;4994842;28;20384;-90
2021/05/30 08:40:51;;;;;;;9.43;4.68;;;;;;;30.67;28.92;101713.75;4994766;28;20519;-90
2021/05/30 08:43:17;;;;;;;5.78;4.43;;;;;;;30.67;28.83;101714.59;4994937;28;20026;-90
2021/05/30 08:45:44;;;;;;;10.43;4.93;;;;;;;30.27;29.37;101711.72;4994916;28;20095;-90
2021/05/30 08:48:10;;;;;;;6.90;3.40;;;;;;;31.15;29.31;101711.72;4994821;28;20068;-90
2021/05/30 08:50:36;;;;;;;7.15;5.53;;;;;;;31.19;28.51;101718.41;4994601;28;20106;-90
2021/05/30 08:53:02;;;;;;;6.63;4.45;;;;;;;31.24;28.61;101717.75;4994716;28;20023;-91
2021/05/30 08:55:28;;;;;;;5.47;4.70;;;;;;;31.50;27.81;101716.94;4994716;28;20081;-92
2021/05/30 08:57:53;;;;;;;7.20;3.92;;;;;;;31.51;28.27;101707.75;4994692;28;20042;-90
2021/05/30 09:00:26;;;;;;;8.60;5.18;;;;;;;31.62;28.58;101698.94;4994665;28;20116;-90
2021/05/30 09:03:11;;;;;;;5.90;4.90;;;;;;;31.66;27.72;101714.81;4994603;28;20073;-91
2021/05/30 09:05:37;;;;;;;6.15;4.28;;;;;;;31.47;27.66;101706.50;4994612;28;20037;-91
2021/05/30 09:08:02;;;;;;;5.53;4.82;;;;;;;31.33;28.00;101704.81;4994502;28;20026;-90
2021/05/30 09:10:29;;;;;;;6.80;5.25;;;;;;;30.94;28.26;101706.50;4994285;28;20066;-90
2021/05/30 09:13:16;;;;;;;7.28;5.20;;;;;;;30.49;28.55;101712.47;4994467;28;20052;-91
2021/05/30 09:18:27;;;;;;;7.65;5.28;;;;;;;30.43;29.60;101700.56;4994368;28;20031;-90
2021/05/30 09:21:04;;;;;;;9.68;5.15;;;;;;;30.72;29.55;101695.81;4994077;28;20076;-90
2021/05/30 09:23:33;;;;;;;6.38;4.90;;;;;;;31.03;28.92;101697.13;4994507;28;20046;-91
2021/05/30 09:26:10;;;;;;;8.45;6.05;;;;;;;30.85;28.62;101695.00;4994218;28;20030;-89
2021/05/30 09:28:37;;;;;;;9.55;5.57;;;;;;;30.63;29.25;101699.78;4993970;28;20435;-90
2021/05/30 09:31:04;;;;;;;6.07;4.10;;;;;;;31.46;28.35;101691.28;4993854;28;20391;-91
2021/05/30 09:33:31;;;;;;;6.90;5.18;;;;;;;31.93;27.93;101694.69;4993995;28;20022;-91
2021/05/30 09:36:01;;;;;;;6.38;5.13;;;;;;;31.92;28.32;101703.03;4994018;28;20027;-92
2021/05/30 09:38:35;;;;;;;4.05;3.65;;;;;;;32.44;28.29;101700.28;4993887;28;20034;-91
2021/05/30 09:41:07;;;;;;;5.63;4.45;;;;;;;32.57;26.81;101692.09;4993811;28;20034;-91
2021/05/30 09:43:35;;;;;;;6.78;5.20;;;;;;;32.48;26.91;101696.09;4993750;28;20182;-91
2021/05/30 09:46:11;;;;;;;5.97;4.80;;;;;;;32.50;26.89;101694.81;4993060;28;20554;-91
2021/05/30 09:48:42;;;;;;;4.57;3.85;;;;;;;32.68;27.00;101691.38;4993684;28;20030;-90
2021/05/30 09:51:34;;;;;;;5.35;4.18;;;;;;;31.95;27.31;101692.59;4994246;28;20484;-91
2021/05/30 09:54:04;;;;;;;5.82;4.10;;;;;;;32.06;27.43;101688.38;4988127;28;20090;-91
2021/05/30 09:56:34;;;;;;;4.85;3.78;;;;;;;32.47;27.02;101689.00;4993523;28;20101;-91
2021/05/30 09:59:01;;;;;;;4.90;3.33;;;;;;;32.44;27.20;101692.13;4993427;28;20411;-91
2021/05/30 10:01:27;;;;;;;4.93;2.80;;;;;;;32.63;25.64;101691.22;4993203;28;20366;-91
2021/05/30 10:03:54;;;;;;;4.93;3.65;;;;;;;33.55;24.98;101691.47;4993340;28;20026;-90
2021/05/30 10:06:19;;;;;;;6.70;5.00;;;;;;;33.62;23.97;101696.00;4993395;28;20030;-91
2021/05/30 10:08:46;;;;;;;5.95;3.55;;;;;;;33.12;25.14;101695.03;4993397;28;20106;-90
2021/05/30 10:11:13;;;;;;;8.02;3.58;;;;;;;33.98;23.35;101697.88;4993353;28;20554;-90
2021/05/30 10:13:39;;;;;;;4.35;3.92;;;;;;;33.82;24.43;101695.78;4993356;28;20030;-90
2021/05/30 10:16:04;;;;;;;4.80;4.20;;;;;;;34.08;24.33;101691.88;4993305;28;20396;-90
2021/05/30 10:18:38;;;;;;;5.97;3.63;;;;;;;34.05;25.23;101687.75;4993066;28;20031;-90
2021/05/30 10:21:05;;;;;;;3.72;3.08;;;;;;;34.03;23.67;101686.31;4993092;28;20030;-91
2021/05/30 10:23:31;;;;;;;5.80;3.97;;;;;;;33.66;23.62;101686.34;4993012;28;20414;-91
2021/05/30 10:26:18;;;;;;;3.97;2.80;;;;;;;35.68;22.18;101681.13;4992984;28;20031;-91
2021/05/30 10:28:50;;;;;;;6.72;3.17;;;;;;;35.27;22.82;101674.75;4993133;28;20022;-91
2021/05/30 10:31:18;;;;;;;4.88;3.90;;;;;;;33.84;24.81;101680.88;4992826;28;20062;-91
2021/05/30 10:34:09;;;;;;;6.60;3.90;;;;;;;32.80;25.57;101676.03;4993323;28;20515;-90
2021/05/30 10:36:35;;;;;;;;;;;;;;;33.55;26.24;101680.56;4993252;28;20065;-90
2021/05/30 10:39:00;;;;;;;4.80;3.83;;;;;;;32.09;26.50;101673.50;4992705;28;20327;-90
2021/05/30 10:41:25;;;;;;;4.57;4.18;;;;;;;32.65;27.89;101670.06;4992664;28;20089;-91
2021/05/30 10:43:51;;;;;;;6.05;5.43;;;;;;;32.35;26.75;101673.38;4992728;28;20089;-90
2021/05/30 10:46:23;;;;;;;7.32;5.32;;;;;;;32.61;27.47;101666.13;4992701;28;20117;-91
2021/05/30 10:49:09;;;;;;;7.03;4.38;;;;;;;32.50;27.40;101672.22;4992683;28;20038;-90
2021/05/30 10:51:47;;;;;;;7.40;5.55;;;;;;;31.25;27.95;101665.19;4992402;28;20030;-91
2021/05/30 10:54:13;;;;;;;5.82;4.70;;;;;;;30.34;28.68;101669.28;4992696;28;20029;-91
2021/05/30 10:56:47;;;;;;;6.85;5.75;;;;;;;30.74;28.14;101665.78;4992561;28;20037;-91
2021/05/30 10:59:14;;;;;;;8.85;5.72;;;;;;;30.88;28.58;101666.63;4992468;28;20018;-89
2021/05/30 11:01:43;;;;;;;7.72;6.85;;;;;;;31.25;29.22;101670.59;4992347;28;20460;-90
2021/05/30 11:04:30;;;;;;;8.60;5.72;;;;;;;31.01;28.07;101653.09;4992451;28;20043;-91
2021/05/30 11:06:56;;;;;;;8.27;6.20;;;;;;;31.48;28.10;101664.75;4992524;28;20030;-91
2021/05/30 11:09:23;;;;;;;7.38;6.07;;;;;;;30.90;28.22;101667.28;4992442;28;20072;-90
2021/05/30 11:12:42;;;;;;;6.45;5.80;;;;;;;31.86;28.06;101666.69;4992313;28;20042;-91
2021/05/30 11:15:07;;;;;;;10.43;7.07;;;;;;;31.88;27.12;101669.22;4951399;29;20393;-90
2021/05/30 11:17:38;;;;;;;11.82;7.15;;;;;;;30.98;27.43;101664.38;4988655;28;20042;-91
2021/05/30 11:20:05;;;;;;;10.37;7.00;;;;;;;30.66;28.59;101669.53;4992391;28;20030;-90
2021/05/30 11:22:41;;;;;;;9.18;7.15;;;;;;;31.26;28.63;101666.00;4992307;28;20022;-90
2021/05/30 11:25:08;;;;;;;8.05;6.65;;;;;;;31.06;27.79;101672.28;4992232;28;20432;-90
2021/05/30 11:27:52;;;;;;;10.80;5.70;;;;;;;31.41;26.78;101666.59;4992332;28;20105;-91